Time;durP1;ratioP1;P1;durP2;ratioP2;P2;SDS_P1;SDS_P2;PMS_P1;PMS_P2;Temp;Humidity;BMP_temperature;BMP_pressure;BME280_temperature;BME280_humidity;BME280_pressure;Samples;Min_cycle;Max_cycle;Signal;HPM_P1;HPM_P2
2023/04/02 00:02:21;;;;;;;0.60;0.60;;;;;;;25.60;36.43;98740.86;1837922;76;28199;-50
2023/04/02 00:05:18;;;;;;;0.50;0.50;;;;;;;25.58;36.46;98743.63;1827001;76;28250;-52
2023/04/02 00:08:10;;;;;;;1.00;0.68;;;;;;;25.55;36.52;98746.38;1836446;77;28165;-47
2023/04/02 00:11:01;;;;;;;0.50;0.50;;;;;;;25.51;36.59;98747.98;1844007;76;28164;-50
2023/04/02 00:13:51;;;;;;;0.60;0.60;;;;;;;25.51;36.60;98755.44;1857275;76;28161;-49
2023/04/02 00:16:39;;;;;;;0.65;0.40;;;;;;;25.52;36.63;98756.53;1836827;76;28173;-49
2023/04/02 00:19:36;;;;;;;1.70;0.55;;;;;;;25.53;36.64;98758.20;1851743;76;31165;-50
2023/04/02 00:22:31;;;;;;;0.50;0.50;;;;;;;25.52;36.67;98755.16;1849864;76;28092;-49
2023/04/02 00:25:19;;;;;;;0.40;0.40;;;;;;;25.52;36.64;98759.83;1847380;76;28155;-50
2023/04/02 00:28:09;;;;;;;0.40;0.40;;;;;;;25.51;36.67;98756.81;1865310;76;28653;-47
2023/04/02 00:31:00;;;;;;;0.50;0.50;;;;;;;25.55;36.63;98760.13;1836909;77;28225;-49
2023/04/02 00:33:50;;;;;;;0.47;0.47;;;;;;;25.53;36.69;98751.86;1850811;76;28168;-51
2023/04/02 00:36:40;;;;;;;0.55;0.47;;;;;;;25.52;36.69;98753.78;1847275;76;28198;-49
2023/04/02 00:39:35;;;;;;;0.50;0.50;;;;;;;25.53;36.67;98762.33;1847378;76;28158;-50
2023/04/02 00:42:24;;;;;;;0.60;0.60;;;;;;;25.55;36.56;98768.38;1848899;76;28180;-52
2023/04/02 00:45:18;;;;;;;1.20;0.50;;;;;;;25.55;36.56;98768.38;1851215;76;28076;-49
2023/04/02 00:48:26;;;;;;;0.80;0.50;;;;;;;25.53;36.64;98770.58;1847450;76;28163;-49
2023/04/02 00:51:26;;;;;;;0.50;0.50;;;;;;;25.54;36.66;98765.87;1835681;77;38543;-49
2023/04/02 00:54:19;;;;;;;0.90;0.78;;;;;;;25.49;36.68;98768.06;1831659;77;28261;-48
2023/04/02 00:57:13;;;;;;;1.17;0.60;;;;;;;25.48;36.72;98771.09;1856804;76;28165;-52
2023/04/02 01:00:23;;;;;;;0.53;0.47;;;;;;;25.48;36.75;98777.43;1853036;76;28103;-48
2023/04/02 01:03:27;;;;;;;0.55;0.40;;;;;;;25.47;36.75;98771.64;1841292;77;28099;-49
2023/04/02 01:06:17;;;;;;;0.60;0.33;;;;;;;25.49;36.75;98785.11;1838411;77;28211;-50
2023/04/02 01:09:30;;;;;;;0.30;0.30;;;;;;;25.48;36.77;98777.43;1849846;75;30138;-51
2023/04/02 01:12:41;;;;;;;1.02;0.50;;;;;;;25.53;36.72;98783.49;1844453;76;28218;-50
2023/04/02 01:15:32;;;;;;;0.30;0.30;;;;;;;25.47;36.76;98778.52;1864514;76;28096;-47
2023/04/02 01:18:36;;;;;;;2.60;1.10;;;;;;;25.47;36.76;98779.89;1865629;76;28142;-49
2023/04/02 01:21:30;;;;;;;1.07;0.42;;;;;;;25.47;36.80;98781.80;1836933;76;28290;-49
2023/04/02 01:24:20;;;;;;;0.40;0.40;;;;;;;25.47;36.77;98781.80;1853178;76;28185;-48
2023/04/02 01:27:24;;;;;;;1.90;0.60;;;;;;;25.48;36.79;98782.93;1848237;76;28079;-48
2023/04/02 01:30:15;;;;;;;0.55;0.40;;;;;;;25.51;36.76;98787.87;1847420;76;28122;-51
2023/04/02 01:33:05;;;;;;;0.60;0.60;;;;;;;25.48;36.77;98789.80;1843231;76;28299;-49
2023/04/02 01:36:04;;;;;;;1.00;0.40;;;;;;;25.50;36.78;98795.02;1855675;76;28063;-49
2023/04/02 01:39:01;;;;;;;0.47;0.47;;;;;;;25.50;36.78;98794.48;1828743;76;28043;-49
2023/04/02 01:41:53;;;;;;;0.35;0.35;;;;;;;25.48;36.80;98798.05;1872568;76;31050;-50
2023/04/02 01:44:52;;;;;;;0.53;0.53;;;;;;;25.48;36.79;98799.97;1861860;76;28210;-49
2023/04/02 01:47:43;;;;;;;1.60;0.50;;;;;;;25.49;36.81;98796.94;1858191;76;28082;-48
2023/04/02 01:50:40;;;;;;;1.37;0.57;;;;;;;25.49;36.78;98796.11;1855785;76;28186;-47
2023/04/02 01:53:30;;;;;;;0.78;0.50;;;;;;;25.50;36.81;98795.02;1871566;76;28148;-49
2023/04/02 01:56:20;;;;;;;1.13;0.50;;;;;;;25.51;36.79;98794.74;1847307;76;28139;-49
2023/04/02 01:59:11;;;;;;;0.40;0.40;;;;;;;25.52;36.76;98795.58;1864231;76;28168;-48
2023/04/02 02:02:10;;;;;;;0.47;0.47;;;;;;;25.51;36.74;98793.37;1837603;76;28595;-47
2023/04/02 02:05:00;;;;;;;0.50;0.50;;;;;;;25.52;36.78;98801.08;1850290;76;28114;-48
2023/04/02 02:07:51;;;;;;;0.47;0.47;;;;;;;25.50;36.79;98808.77;1849718;76;32007;-49
2023/04/02 02:10:39;;;;;;;0.60;0.45;;;;;;;25.52;36.76;98807.41;1839495;76;28310;-49
2023/04/02 02:13:30;;;;;;;0.60;0.50;;;;;;;25.52;36.78;98803.83;1858959;76;28233;-50
2023/04/02 02:16:20;;;;;;;0.57;0.53;;;;;;;25.52;36.76;98804.66;1860247;76;28680;-49
2023/04/02 02:19:11;;;;;;;0.50;0.50;;;;;;;25.51;36.74;98799.44;1849596;76;28123;-49
2023/04/02 02:22:02;;;;;;;1.50;0.45;;;;;;;25.52;36.74;98801.91;1846990;76;28115;-48
2023/04/02 02:24:50;;;;;;;0.40;0.40;;;;;;;25.54;36.71;98805.21;1842219;76;28201;-51
2023/04/02 02:28:00;;;;;;;0.85;0.50;;;;;;;25.56;36.70;98795.30;1850834;76;28181;-49
2023/04/02 02:30:55;;;;;;;1.73;0.50;;;;;;;25.56;36.68;98802.18;1854028;76;28111;-48
2023/04/02 02:33:52;;;;;;;1.07;0.65;;;;;;;25.49;36.76;98794.73;1856093;76;28267;-52
2023/04/02 02:36:49;;;;;;;0.27;0.27;;;;;;;25.51;36.77;98803.56;1834966;77;28108;-50
2023/04/02 02:39:41;;;;;;;1.93;0.50;;;;;;;25.48;36.79;98799.97;1847692;76;28107;-49
2023/04/02 02:42:35;;;;;;;0.50;0.50;;;;;;;25.49;36.79;98805.73;1868532;76;28674;-50
2023/04/02 02:45:27;;;;;;;1.10;0.40;;;;;;;25.53;36.75;98800.83;1839417;77;28176;-50
2023/04/02 02:48:18;;;;;;;0.80;0.53;;;;;;;25.52;36.72;98796.41;1849726;76;28114;-52
2023/04/02 02:51:11;;;;;;;0.70;0.30;;;;;;;25.53;36.71;98805.49;1828187;77;28203;-52
2023/04/02 02:54:02;;;;;;;0.30;0.30;;;;;;;25.53;36.63;98809.08;1846172;77;28109;-47
2023/04/02 02:56:54;;;;;;;0.40;0.40;;;;;;;25.54;36.67;98817.59;1836214;77;28245;-50
2023/04/02 02:59:45;;;;;;;0.90;0.40;;;;;;;25.56;36.56;98823.64;1850501;76;28189;-49
2023/04/02 03:02:37;;;;;;;0.60;0.60;;;;;;;25.56;36.55;98826.93;1838935;76;28194;-49
2023/04/02 03:05:28;;;;;;;0.60;0.60;;;;;;;25.53;36.53;98826.12;1846252;77;28144;-52
2023/04/02 03:08:21;;;;;;;2.58;0.57;;;;;;;25.52;36.53;98828.03;1844964;77;29167;-49
2023/04/02 03:11:12;;;;;;;2.20;0.72;;;;;;;25.52;36.58;98834.08;1851073;76;28156;-49
2023/04/02 03:14:23;;;;;;;0.40;0.40;;;;;;;25.50;36.60;98831.61;1861375;76;28162;-49
2023/04/02 03:17:23;;;;;;;1.07;0.60;;;;;;;25.50;36.56;98832.15;1787871;78;28256;-50
2023/04/02 03:20:24;;;;;;;0.50;0.50;;;;;;;25.47;36.61;98839.02;1708157;82;28548;-51
2023/04/02 03:23:32;;;;;;;1.70;0.70;;;;;;;25.46;36.62;98841.50;1782649;79;28210;-47
2023/04/02 03:26:35;;;;;;;0.50;0.30;;;;;;;25.45;36.63;98834.33;1858559;76;28121;-50
2023/04/02 03:29:36;;;;;;;1.60;0.37;;;;;;;25.45;36.60;98832.12;1856437;76;28064;-49
2023/04/02 03:32:31;;;;;;;0.30;0.30;;;;;;;25.44;36.61;98835.41;1853701;76;28201;-50
2023/04/02 03:35:29;;;;;;;0.40;0.30;;;;;;;25.42;36.67;98833.45;1849400;76;28170;-52
2023/04/02 03:38:26;;;;;;;0.30;0.25;;;;;;;25.42;36.62;98840.33;1860890;76;28218;-50
2023/04/02 03:41:18;;;;;;;1.40;0.70;;;;;;;25.43;36.59;98840.63;1862721;76;28148;-50
2023/04/02 03:44:16;;;;;;;0.47;0.47;;;;;;;25.40;36.29;98843.90;1848091;76;28426;-48
2023/04/02 03:47:11;;;;;;;0.30;0.30;;;;;;;25.40;36.29;98843.90;1851944;76;28333;-50
2023/04/02 03:50:30;;;;;;;0.60;0.47;;;;;;;25.43;36.60;98859.03;1849318;76;28177;-50
2023/04/02 03:53:25;;;;;;;0.40;0.40;;;;;;;25.45;36.54;98856.33;1850858;76;28056;-47
2023/04/02 03:56:38;;;;;;;0.40;0.30;;;;;;;25.43;36.55;98856.28;1847692;76;28193;-50
2023/04/02 03:59:30;;;;;;;0.50;0.50;;;;;;;25.45;36.56;98863.75;1847389;76;28224;-53
2023/04/02 04:02:35;;;;;;;0.80;0.40;;;;;;;25.44;36.54;98862.11;1866469;76;28557;-50
2023/04/02 04:05:29;;;;;;;0.93;0.40;;;;;;;25.42;36.52;98865.08;1862096;76;28157;-48
2023/04/02 04:08:43;;;;;;;0.50;0.50;;;;;;;25.42;36.52;98860.95;1821792;77;28211;-51
2023/04/02 04:11:35;;;;;;;0.35;0.35;;;;;;;25.43;36.51;98868.13;1851515;76;28089;-51
2023/04/02 04:14:32;;;;;;;0.82;0.42;;;;;;;25.41;36.52;98866.99;1851685;76;28611;-49
2023/04/02 04:17:28;;;;;;;0.35;0.35;;;;;;;25.42;36.49;98867.83;1847714;76;28098;-51
2023/04/02 04:20:24;;;;;;;0.97;0.47;;;;;;;25.45;36.46;98866.50;1847335;76;28101;-48
2023/04/02 04:23:30;;;;;;;0.70;0.30;;;;;;;25.43;36.49;98862.62;1847528;76;28240;-50
2023/04/02 04:26:30;;;;;;;0.53;0.40;;;;;;;25.45;36.44;98854.95;1847529;76;28181;-48
2023/04/02 04:29:44;;;;;;;0.50;0.50;;;;;;;25.41;36.50;98855.19;1850808;76;28180;-46
2023/04/02 04:32:41;;;;;;;0.30;0.28;;;;;;;25.41;36.46;98866.99;1854574;76;28155;-48
2023/04/02 04:35:39;;;;;;;0.62;0.60;;;;;;;25.40;36.47;98865.36;1851477;76;28143;-52
2023/04/02 04:38:39;;;;;;;0.55;0.50;;;;;;;25.41;36.46;98863.44;1858283;76;37552;-46
2023/04/02 04:41:35;;;;;;;0.47;0.47;;;;;;;25.41;36.45;98868.37;1858083;76;28170;-50
2023/04/02 04:44:42;;;;;;;0.55;0.53;;;;;;;25.41;36.42;98863.44;1858106;76;28200;-49
2023/04/02 04:47:37;;;;;;;1.00;0.50;;;;;;;25.43;36.42;98868.66;1837185;77;28441;-49
2023/04/02 04:50:31;;;;;;;1.00;0.50;;;;;;;25.44;36.38;98873.11;1855091;76;28052;-50
2023/04/02 04:53:24;;;;;;;0.40;0.40;;;;;;;25.44;36.39;98875.86;1854273;76;28188;-47
2023/04/02 04:56:16;;;;;;;0.30;0.30;;;;;;;25.42;36.36;98880.20;1858078;76;28266;-49
2023/04/02 04:59:14;;;;;;;0.65;0.42;;;;;;;25.43;36.35;98884.62;1858485;76;28128;-49
2023/04/02 05:02:06;;;;;;;1.23;0.50;;;;;;;25.44;36.34;98880.78;1837324;77;28230;-50
2023/04/02 05:04:56;;;;;;;0.40;0.40;;;;;;;25.44;36.31;98879.98;1853980;76;28133;-51
2023/04/02 05:07:57;;;;;;;0.70;0.50;;;;;;;25.45;36.26;98877.50;1849452;76;28157;-51
2023/04/02 05:10:51;;;;;;;1.20;0.50;;;;;;;25.44;36.28;98882.73;1847898;76;28173;-50
2023/04/02 05:13:55;;;;;;;0.53;0.37;;;;;;;25.44;36.32;98884.11;1844557;75;28371;-49
2023/04/02 05:16:47;;;;;;;0.65;0.50;;;;;;;25.42;36.34;98887.07;1860465;76;28103;-49
2023/04/02 05:19:42;;;;;;;0.37;0.37;;;;;;;25.40;36.31;98885.14;1868470;76;28145;-48
2023/04/02 05:22:36;;;;;;;0.40;0.40;;;;;;;25.42;36.30;98892.57;1853719;76;28577;-50
2023/04/02 05:25:28;;;;;;;0.30;0.30;;;;;;;25.45;36.30;98894.83;1852054;76;28142;-49
2023/04/02 05:28:27;;;;;;;0.50;0.50;;;;;;;25.46;36.23;98897.88;1850221;76;28252;-49
2023/04/02 05:31:21;;;;;;;0.88;0.60;;;;;;;25.46;36.18;98896.50;1867209;76;28142;-48
2023/04/02 05:34:13;;;;;;;0.40;0.40;;;;;;;25.46;36.54;98899.79;1853739;76;28095;-47
2023/04/02 05:37:02;;;;;;;0.62;0.40;;;;;;;25.48;36.62;98902.55;1870426;76;28055;-50
2023/04/02 05:39:54;;;;;;;0.78;0.40;;;;;;;25.44;36.45;98904.16;1862719;76;28209;-52
2023/04/02 05:42:46;;;;;;;0.50;0.40;;;;;;;25.44;36.46;98901.98;1856430;76;28228;-50
2023/04/02 05:45:38;;;;;;;2.93;0.50;;;;;;;25.44;36.41;98904.16;1857004;76;28274;-50
2023/04/02 05:48:30;;;;;;;1.13;0.57;;;;;;;25.41;36.46;98904.69;1862141;76;28861;-50
2023/04/02 05:51:22;;;;;;;0.90;0.50;;;;;;;25.39;36.46;98911.00;1879772;76;28083;-46
2023/04/02 05:54:17;;;;;;;1.50;0.30;;;;;;;25.41;36.44;98909.61;1856569;76;28185;-48
2023/04/02 05:57:08;;;;;;;1.20;0.30;;;;;;;25.44;36.47;98912.98;1874844;76;27993;-50
2023/04/02 06:00:00;;;;;;;0.82;0.40;;;;;;;25.47;36.41;98915.17;1873915;76;28119;-48
2023/04/02 06:02:53;;;;;;;0.78;0.40;;;;;;;25.44;36.77;98922.03;1866012;74;28167;-50
2023/04/02 06:05:45;;;;;;;1.45;0.57;;;;;;;25.46;36.59;98925.91;1862850;74;28051;-48
2023/04/02 06:08:37;;;;;;;0.50;0.50;;;;;;;25.45;36.16;98925.08;1856537;76;28710;-50
2023/04/02 06:11:29;;;;;;;0.47;0.42;;;;;;;25.42;35.74;98925.57;1860335;76;28196;-48
2023/04/02 06:14:18;;;;;;;1.30;0.47;;;;;;;25.40;35.95;98919.52;1846717;76;28263;-49
2023/04/02 06:17:14;;;;;;;1.10;0.40;;;;;;;25.44;35.99;98927.53;1867414;76;28188;-48
2023/04/02 06:20:05;;;;;;;0.33;0.33;;;;;;;25.40;36.07;98925.84;1867570;76;28076;-47
2023/04/02 06:22:59;;;;;;;1.47;0.53;;;;;;;25.45;36.01;98928.37;1864738;76;28068;-50
2023/04/02 06:25:54;;;;;;;1.02;0.65;;;;;;;25.47;36.08;98924.80;1859051;76;28292;-48
2023/04/02 06:28:52;;;;;;;1.07;0.47;;;;;;;25.47;36.07;98929.76;1835936;77;28123;-51
2023/04/02 06:31:51;;;;;;;0.40;0.40;;;;;;;25.46;36.05;98933.63;1858718;76;28065;-49
2023/04/02 06:34:42;;;;;;;0.40;0.40;;;;;;;25.45;36.02;98934.70;1817229;78;28202;-52
2023/04/02 06:37:35;;;;;;;1.07;0.50;;;;;;;25.44;35.96;98934.41;1797671;79;28400;-49
2023/04/02 06:40:46;;;;;;;0.57;0.57;;;;;;;25.46;35.91;98936.91;1775891;79;28251;-48
2023/04/02 06:44:02;;;;;;;0.60;0.60;;;;;;;25.32;35.28;98949.70;1780012;80;28326;-50
2023/04/02 06:47:03;;;;;;;2.35;0.60;;;;;;;25.27;35.41;98948.33;1790433;79;28250;-51
2023/04/02 06:49:55;;;;;;;0.35;0.30;;;;;;;25.25;35.56;98948.31;1835718;76;28203;-49
2023/04/02 06:52:55;;;;;;;0.55;0.33;;;;;;;25.21;35.75;98945.78;1831331;77;28251;-49
2023/04/02 06:55:55;;;;;;;1.07;0.62;;;;;;;25.20;35.81;98949.10;1827180;77;28170;-56
2023/04/02 06:58:45;;;;;;;0.80;0.55;;;;;;;25.22;35.76;98958.45;1856553;77;28200;-48
2023/04/02 07:01:37;;;;;;;1.33;0.63;;;;;;;25.22;35.40;98959.82;1856437;77;28176;-50
2023/04/02 07:04:27;;;;;;;1.90;0.50;;;;;;;25.14;34.60;98952.89;1847729;76;28103;-47
2023/04/02 07:07:16;;;;;;;0.68;0.68;;;;;;;25.13;34.44;98960.04;1830257;77;28202;-51
2023/04/02 07:10:08;;;;;;;0.60;0.60;;;;;;;25.12;35.15;98963.87;1850517;75;28108;-48
2023/04/02 07:12:56;;;;;;;0.40;0.40;;;;;;;25.11;35.43;98971.28;1852953;76;31084;-48
2023/04/02 07:15:47;;;;;;;1.05;0.50;;;;;;;25.11;35.73;98975.97;1847354;76;28170;-48
2023/04/02 07:18:35;;;;;;;3.00;0.50;;;;;;;25.13;36.08;98974.61;1847483;76;28128;-48
2023/04/02 07:21:27;;;;;;;0.53;0.50;;;;;;;25.13;36.18;98975.98;1835903;77;28282;-47
2023/04/02 07:24:16;;;;;;;4.53;0.60;;;;;;;25.08;36.43;98970.98;1840700;77;28182;-49
2023/04/02 07:27:04;;;;;;;0.50;0.50;;;;;;;25.13;36.58;98980.11;1852286;75;34050;-48
2023/04/02 07:29:52;;;;;;;0.95;0.82;;;;;;;25.12;36.60;98990.81;1880291;75;28072;-47
2023/04/02 07:32:41;;;;;;;0.42;0.42;;;;;;;25.15;36.70;98990.83;1871352;75;28071;-51
2023/04/02 07:35:29;;;;;;;1.52;0.70;;;;;;;25.16;36.79;98994.68;1884065;75;28094;-49
2023/04/02 07:38:18;;;;;;;2.02;1.07;;;;;;;25.17;36.74;98995.52;1882769;75;28219;-49
2023/04/02 07:41:07;;;;;;;2.35;0.70;;;;;;;25.17;36.77;98994.14;1884108;75;28142;-47
2023/04/02 07:43:55;;;;;;;0.47;0.47;;;;;;;25.17;36.74;98990.02;1884074;75;28201;-47
2023/04/02 07:46:44;;;;;;;2.10;0.70;;;;;;;25.18;36.74;98995.81;1864506;75;28132;-51
2023/04/02 07:49:32;;;;;;;0.85;0.80;;;;;;;25.18;36.74;98998.56;1855573;75;28724;-51
2023/04/02 07:52:20;;;;;;;0.60;0.60;;;;;;;25.16;36.70;98997.97;1850898;75;28684;-51
2023/04/02 07:55:11;;;;;;;0.70;0.70;;;;;;;25.15;36.72;98998.54;1884118;75;28232;-49
2023/04/02 07:58:00;;;;;;;0.70;0.70;;;;;;;25.16;36.69;99005.67;1862473;75;28225;-48
2023/04/02 08:00:49;;;;;;;0.85;0.85;;;;;;;25.17;36.72;99014.76;1884032;74;28091;-48
2023/04/02 08:03:37;;;;;;;0.63;0.63;;;;;;;25.15;36.76;99002.66;1872438;75;28205;-48
2023/04/02 08:06:26;;;;;;;1.55;0.90;;;;;;;25.17;36.78;99013.38;1884051;75;28135;-47
2023/04/02 08:09:15;;;;;;;1.40;1.30;;;;;;;25.16;36.77;99018.58;1873807;75;28363;-50
2023/04/02 08:12:04;;;;;;;1.12;1.02;;;;;;;25.14;36.17;99024.89;1870113;75;28235;-48
2023/04/02 08:14:53;;;;;;;2.20;1.07;;;;;;;25.12;36.32;99025.70;1862904;75;28210;-46
2023/04/02 08:17:42;;;;;;;1.05;0.95;;;;;;;25.14;36.40;99023.52;1866470;75;28185;-52
2023/04/02 08:20:30;;;;;;;0.50;0.50;;;;;;;25.15;36.54;99025.19;1862427;75;28116;-53
2023/04/02 08:23:19;;;;;;;1.07;1.00;;;;;;;25.14;36.71;99033.98;1862481;75;28196;-48
2023/04/02 08:26:08;;;;;;;0.98;0.98;;;;;;;25.15;36.58;99028.77;1870522;75;28153;-52
2023/04/02 08:28:56;;;;;;;1.20;1.10;;;;;;;25.15;36.81;99021.06;1879087;75;28171;-47
2023/04/02 08:31:45;;;;;;;1.07;1.05;;;;;;;25.13;36.82;99027.38;1876459;75;28247;-52
2023/04/02 08:34:33;;;;;;;2.10;1.00;;;;;;;25.13;36.67;99030.96;1873230;75;28153;-48
2023/04/02 08:37:21;;;;;;;1.30;1.30;;;;;;;25.12;36.64;99034.78;1851033;77;28251;-48
2023/04/02 08:40:22;;;;;;;1.17;1.07;;;;;;;25.12;36.65;99032.58;1863493;75;28155;-49
2023/04/02 08:43:32;;;;;;;0.80;0.80;;;;;;;25.12;36.53;99031.20;1853493;75;28186;-50
2023/04/02 08:46:23;;;;;;;1.40;0.90;;;;;;;25.14;36.49;99035.89;1873274;75;28474;-48
2023/04/02 08:49:26;;;;;;;0.60;0.60;;;;;;;25.11;36.71;99037.81;1873563;75;28217;-51
2023/04/02 08:52:27;;;;;;;0.80;0.80;;;;;;;25.11;37.14;99033.69;1862548;75;28071;-50
2023/04/02 08:55:33;;;;;;;2.05;0.80;;;;;;;25.10;37.20;99046.59;1870592;75;28169;-50
2023/04/02 08:58:24;;;;;;;0.95;0.85;;;;;;;25.09;37.37;99051.79;1868632;75;28287;-50
2023/04/02 09:01:45;;;;;;;1.55;0.95;;;;;;;25.05;37.22;99051.20;1863040;75;28088;-46
2023/04/02 09:04:35;;;;;;;1.20;0.80;;;;;;;25.05;37.96;99053.41;1823849;77;28236;-45
2023/04/02 09:07:25;;;;;;;3.62;1.02;;;;;;;25.00;37.97;99056.11;1821569;77;28150;-47
2023/04/02 09:10:16;;;;;;;1.50;0.70;;;;;;;25.01;38.14;99050.08;1802775;78;28433;-47
2023/04/02 09:13:09;;;;;;;1.00;0.90;;;;;;;25.02;38.28;99059.42;1845084;77;28221;-46
2023/04/02 09:16:12;;;;;;;0.90;0.70;;;;;;;25.02;38.36;99053.92;1831178;77;28700;-45
2023/04/02 09:19:01;;;;;;;0.80;0.80;;;;;;;25.03;38.12;99056.14;1800328;78;28266;-47
2023/04/02 09:22:15;;;;;;;1.80;0.80;;;;;;;25.00;38.49;99055.27;1808495;78;28305;-45
2023/04/02 09:25:06;;;;;;;0.80;0.80;;;;;;;24.92;38.30;99046.15;1810517;78;28294;-46
2023/04/02 09:27:57;;;;;;;2.00;0.90;;;;;;;24.97;38.59;99058.00;1810378;78;28369;-48
2023/04/02 09:30:54;;;;;;;0.98;0.80;;;;;;;24.98;38.81;99065.70;1800116;78;28311;-48
2023/04/02 09:33:47;;;;;;;3.23;0.80;;;;;;;24.98;38.71;99065.16;1838289;77;28254;-47
2023/04/02 09:36:37;;;;;;;0.60;0.60;;;;;;;24.98;38.55;99064.33;1827490;77;28302;-50
2023/04/02 09:39:26;;;;;;;0.70;0.70;;;;;;;24.97;38.76;99061.31;1845981;77;38855;-48
2023/04/02 09:42:33;;;;;;;1.05;0.70;;;;;;;24.96;38.87;99063.77;1843618;77;28060;-46
2023/04/02 09:45:24;;;;;;;0.90;0.60;;;;;;;24.95;39.00;99064.30;1853598;76;28099;-47
2023/04/02 09:48:19;;;;;;;0.62;0.62;;;;;;;24.94;39.11;99061.29;1848516;76;28170;-45
2023/04/02 09:51:21;;;;;;;0.62;0.62;;;;;;;24.92;38.77;99063.47;1847194;76;28152;-46
2023/04/02 09:54:17;;;;;;;0.60;0.60;;;;;;;24.92;39.00;99063.47;1831080;77;28233;-46
2023/04/02 09:57:05;;;;;;;0.80;0.80;;;;;;;24.92;38.96;99054.39;1846512;77;28320;-46
2023/04/02 10:00:12;;;;;;;0.60;0.60;;;;;;;24.92;39.12;99064.01;1839494;77;28171;-49
2023/04/02 10:03:20;;;;;;;1.42;0.65;;;;;;;24.94;39.01;99054.95;1838820;77;28187;-46
2023/04/02 10:06:11;;;;;;;0.68;0.68;;;;;;;24.93;39.13;99062.91;1845306;77;28457;-46
2023/04/02 10:09:21;;;;;;;0.60;0.60;;;;;;;24.92;39.09;99068.12;1858119;76;28260;-46
2023/04/02 10:12:12;;;;;;;0.70;0.70;;;;;;;24.90;39.09;99062.07;1846433;77;28671;-47
2023/04/02 10:15:03;;;;;;;2.03;0.63;;;;;;;24.88;39.01;99069.75;1846487;77;28139;-47
2023/04/02 10:17:55;;;;;;;0.90;0.60;;;;;;;24.88;39.28;99065.63;1852040;76;28105;-46
2023/04/02 10:20:45;;;;;;;0.50;0.50;;;;;;;24.91;39.15;99066.45;1825725;78;28234;-45
2023/04/02 10:23:35;;;;;;;1.40;0.70;;;;;;;24.91;39.04;99074.70;1858366;76;28142;-46
2023/04/02 10:26:35;;;;;;;4.00;0.80;;;;;;;24.95;39.09;99073.11;1857842;76;28144;-48
2023/04/02 10:29:45;;;;;;;0.57;0.50;;;;;;;24.86;39.14;99056.78;1845604;75;28092;-48
2023/04/02 10:32:55;;;;;;;0.57;0.57;;;;;;;24.95;39.06;99067.62;1864719;76;35196;-44
2023/04/02 10:36:02;;;;;;;0.42;0.42;;;;;;;24.92;39.10;99075.84;1845684;77;28218;-44
2023/04/02 10:39:08;;;;;;;1.63;0.50;;;;;;;24.89;39.23;99074.97;1811572;77;28306;-46
2023/04/02 10:42:08;;;;;;;3.30;0.50;;;;;;;24.90;39.25;99074.44;1860858;76;28197;-47
2023/04/02 10:45:22;;;;;;;4.43;0.90;;;;;;;24.90;39.15;99073.86;1866396;76;28234;-45
2023/04/02 10:48:13;;;;;;;0.62;0.47;;;;;;;24.90;39.30;99082.67;1845838;77;28211;-47
2023/04/02 10:51:04;;;;;;;0.57;0.57;;;;;;;24.89;39.22;99076.34;1867061;76;28235;-50
2023/04/02 10:54:02;;;;;;;0.40;0.40;;;;;;;24.92;39.13;99084.62;1867219;76;28114;-44
2023/04/02 10:56:52;;;;;;;0.35;0.33;;;;;;;24.93;39.10;99078.02;1863402;76;28118;-46
2023/04/02 10:59:43;;;;;;;0.42;0.42;;;;;;;24.93;39.04;99073.36;1859338;76;28128;-44
2023/04/02 11:02:51;;;;;;;0.50;0.50;;;;;;;24.95;38.98;99076.66;1848578;76;28189;-46
2023/04/02 11:05:45;;;;;;;0.40;0.40;;;;;;;24.99;38.85;99078.37;1867256;76;28169;-45
2023/04/02 11:08:40;;;;;;;1.00;0.40;;;;;;;24.94;38.94;99079.15;1867544;76;28104;-47
2023/04/02 11:11:35;;;;;;;0.70;0.60;;;;;;;24.94;38.94;99078.31;1864170;76;28198;-47
2023/04/02 11:14:29;;;;;;;0.20;0.20;;;;;;;24.93;38.91;99074.73;1859900;76;28249;-45
2023/04/02 11:17:18;;;;;;;0.47;0.45;;;;;;;24.94;38.67;99078.31;1868296;76;28116;-50
2023/04/02 11:20:43;;;;;;;0.47;0.47;;;;;;;24.93;38.79;99076.10;1872225;76;28178;-50
2023/04/02 11:23:52;;;;;;;0.45;0.45;;;;;;;24.94;38.86;99074.19;1871467;76;28254;-49
2023/04/02 11:26:46;;;;;;;0.40;0.40;;;;;;;24.91;38.90;99082.94;1821093;75;28249;-46
2023/04/02 11:29:35;;;;;;;0.42;0.42;;;;;;;24.89;38.87;99083.21;1846172;76;28176;-47
2023/04/02 11:32:27;;;;;;;1.90;0.47;;;;;;;24.88;38.89;99075.24;1861599;76;28260;-47
2023/04/02 11:35:33;;;;;;;0.50;0.50;;;;;;;24.87;38.72;99080.44;1857039;76;28209;-50
2023/04/02 11:38:26;;;;;;;0.50;0.50;;;;;;;24.88;38.71;99077.98;1847002;76;28192;-47
2023/04/02 11:41:14;;;;;;;0.50;0.50;;;;;;;24.85;38.61;99078.50;1867372;76;28159;-49
2023/04/02 11:44:03;;;;;;;0.50;0.50;;;;;;;24.84;38.68;99098.27;1867068;76;28107;-46
2023/04/02 11:46:52;;;;;;;0.40;0.40;;;;;;;24.88;38.74;99093.91;1862494;76;28155;-47
2023/04/02 11:49:42;;;;;;;0.50;0.50;;;;;;;24.85;38.63;99095.82;1867076;76;28306;-45
2023/04/02 11:52:49;;;;;;;1.70;0.70;;;;;;;24.85;38.61;99089.48;1849809;76;28247;-48
2023/04/02 11:55:46;;;;;;;0.50;0.50;;;;;;;24.85;38.60;99101.85;1847673;76;28213;-46
2023/04/02 11:58:37;;;;;;;0.50;0.50;;;;;;;24.82;38.58;99106.48;1857040;76;28329;-49
2023/04/02 12:01:56;;;;;;;0.40;0.40;;;;;;;24.83;38.68;99109.53;1860079;76;28075;-46
2023/04/02 12:05:08;;;;;;;0.40;0.40;;;;;;;24.81;38.64;99104.84;1860675;76;28256;-46
2023/04/02 12:08:08;;;;;;;0.50;0.50;;;;;;;24.79;38.85;99115.23;1771576;79;28353;-45
2023/04/02 12:11:00;;;;;;;0.60;0.60;;;;;;;24.80;38.77;99116.36;1798306;78;28319;-48
2023/04/02 12:13:51;;;;;;;0.75;0.60;;;;;;;24.82;38.74;99121.59;1864024;75;28108;-48
2023/04/02 12:16:40;;;;;;;0.40;0.40;;;;;;;24.83;38.60;99115.86;1856668;76;32070;-46
2023/04/02 12:19:31;;;;;;;0.90;0.55;;;;;;;24.85;38.63;99119.17;1861251;76;28270;-48
2023/04/02 12:22:34;;;;;;;0.40;0.40;;;;;;;24.84;38.70;99112.55;1857714;76;28051;-46
2023/04/02 12:25:38;;;;;;;0.47;0.47;;;;;;;24.85;38.65;99111.47;1847444;76;28212;-44
2023/04/02 12:28:27;;;;;;;0.60;0.60;;;;;;;24.84;38.60;99107.05;1867565;76;28209;-45
2023/04/02 12:31:17;;;;;;;0.50;0.50;;;;;;;24.83;38.61;99104.03;1866090;75;28064;-47
2023/04/02 12:34:07;;;;;;;0.50;0.50;;;;;;;24.87;38.52;99096.92;1842474;77;28147;-46
2023/04/02 12:37:05;;;;;;;0.62;0.62;;;;;;;24.88;38.29;99091.73;1857087;76;28259;-49
2023/04/02 12:39:57;;;;;;;1.20;0.60;;;;;;;24.88;38.29;99102.72;1858105;76;28262;-47
2023/04/02 12:42:45;;;;;;;0.33;0.33;;;;;;;24.89;38.24;99093.37;1861088;76;28898;-45
2023/04/02 12:45:35;;;;;;;0.50;0.50;;;;;;;24.87;38.16;99103.79;1838232;77;28207;-50
2023/04/02 12:48:25;;;;;;;0.40;0.40;;;;;;;24.87;38.18;99101.05;1839081;77;28173;-47
2023/04/02 12:51:14;;;;;;;0.30;0.30;;;;;;;24.87;38.15;99105.16;1835889;77;28186;-44
2023/04/02 12:54:03;;;;;;;0.42;0.42;;;;;;;24.90;38.14;99110.16;1844808;76;28271;-45
2023/04/02 12:56:51;;;;;;;0.60;0.60;;;;;;;24.89;38.17;99111.23;1842502;77;28086;-46
2023/04/02 12:59:41;;;;;;;0.47;0.40;;;;;;;24.87;38.15;99115.62;1837684;77;28131;-47
2023/04/02 13:02:36;;;;;;;1.00;0.47;;;;;;;24.89;38.25;99112.06;1853612;77;28139;-45
2023/04/02 13:05:42;;;;;;;0.50;0.50;;;;;;;24.90;38.17;99107.41;1850596;77;28199;-47
2023/04/02 13:08:33;;;;;;;0.30;0.30;;;;;;;24.90;38.21;99104.09;1845886;77;28125;-47
2023/04/02 13:11:22;;;;;;;0.33;0.33;;;;;;;24.88;37.98;99102.72;1841305;77;28100;-49
2023/04/02 13:14:20;;;;;;;0.98;0.50;;;;;;;24.87;38.16;99092.27;1836847;77;38129;-45
2023/04/02 13:17:23;;;;;;;0.50;0.40;;;;;;;24.85;38.09;99082.62;1847141;75;28156;-49
2023/04/02 13:20:34;;;;;;;0.40;0.40;;;;;;;24.85;37.95;99087.58;1836464;76;28186;-45
2023/04/02 13:23:35;;;;;;;1.00;0.40;;;;;;;24.83;38.13;99078.77;1851673;77;28337;-47
2023/04/02 13:26:29;;;;;;;0.30;0.30;;;;;;;24.82;38.10;99090.00;1838975;76;28204;-45
2023/04/02 13:29:29;;;;;;;0.60;0.30;;;;;;;24.83;38.07;99095.80;1850153;76;28256;-47
2023/04/02 13:32:18;;;;;;;0.42;0.42;;;;;;;24.83;38.10;99086.17;1844495;76;28004;-46
2023/04/02 13:35:08;;;;;;;0.40;0.40;;;;;;;24.82;38.05;99090.00;1856004;76;28125;-46
2023/04/02 13:37:56;;;;;;;0.60;0.42;;;;;;;24.80;38.07;99089.43;1839081;76;28564;-46
2023/04/02 13:40:45;;;;;;;0.37;0.37;;;;;;;24.84;37.98;99100.17;1845739;76;28113;-48
2023/04/02 13:43:34;;;;;;;0.50;0.50;;;;;;;24.85;38.02;99090.33;1848803;76;28185;-46
2023/04/02 13:46:25;;;;;;;0.30;0.30;;;;;;;24.87;38.00;99079.06;1844413;76;28032;-49